sensor_id;sensor_type;location;lat;lon;timestamp;pressure;altitude;pressure_sealevel;temperature;humidity
75668;BME280;64266;48.798;44.756;2022-12-07T00:02:05;103751.94;;;-6.88;50.35
75668;BME280;64266;48.798;44.756;2022-12-07T00:04:31;103734.25;;;-7.04;50.73
75668;BME280;64266;48.798;44.756;2022-12-07T00:06:57;103759.75;;;-6.91;51.72
75668;BME280;64266;48.798;44.756;2022-12-07T00:09:22;103744.72;;;-7.14;51.06
75668;BME280;64266;48.798;44.756;2022-12-07T00:11:50;103765.94;;;-7.01;51.56
75668;BME280;64266;48.798;44.756;2022-12-07T00:14:17;103759.25;;;-7.08;51.37
75668;BME280;64266;48.798;44.756;2022-12-07T00:16:44;103699.03;;;-7.50;50.77
75668;BME280;64266;48.798;44.756;2022-12-07T00:19:12;103768.03;;;-7.20;52.29
75668;BME280;64266;48.798;44.756;2022-12-07T00:21:39;103717.88;;;-7.45;50.94
75668;BME280;64266;48.798;44.756;2022-12-07T00:24:05;103744.97;;;-7.26;52.42
75668;BME280;64266;48.798;44.756;2022-12-07T00:26:34;103739.28;;;-7.41;52.74
75668;BME280;64266;48.798;44.756;2022-12-07T00:29:05;103718.66;;;-7.41;51.03
75668;BME280;64266;48.798;44.756;2022-12-07T00:31:34;103721.06;;;-7.34;52.12
75668;BME280;64266;48.798;44.756;2022-12-07T00:34:01;103720.22;;;-7.34;51.77
75668;BME280;64266;48.798;44.756;2022-12-07T00:36:28;103728.06;;;-7.40;52.01
75668;BME280;64266;48.798;44.756;2022-12-07T00:38:54;103696.47;;;-7.50;52.41
75668;BME280;64266;48.798;44.756;2022-12-07T00:41:22;103735.69;;;-7.34;52.61
75668;BME280;64266;48.798;44.756;2022-12-07T00:43:49;103717.75;;;-7.39;52.11
75668;BME280;64266;48.798;44.756;2022-12-07T00:46:15;103735.78;;;-7.40;51.69
75668;BME280;64266;48.798;44.756;2022-12-07T00:48:42;103726.47;;;-7.46;51.14
75668;BME280;64266;48.798;44.756;2022-12-07T00:51:10;103729.22;;;-7.55;53.15
75668;BME280;64266;48.798;44.756;2022-12-07T00:53:37;103734.19;;;-7.47;51.59
75668;BME280;64266;48.798;44.756;2022-12-07T00:56:11;103727.38;;;-7.48;52.91
75668;BME280;64266;48.798;44.756;2022-12-07T00:58:38;103739.88;;;-7.29;52.84
75668;BME280;64266;48.798;44.756;2022-12-07T01:01:06;103731.31;;;-7.29;52.57
75668;BME280;64266;48.798;44.756;2022-12-07T01:03:32;103733.88;;;-7.29;51.77
75668;BME280;64266;48.798;44.756;2022-12-07T01:05:58;103733.88;;;-7.29;51.87
75668;BME280;64266;48.798;44.756;2022-12-07T01:08:26;103712.47;;;-7.33;50.96
75668;BME280;64266;48.798;44.756;2022-12-07T01:11:04;103719.41;;;-7.36;51.55
75668;BME280;64266;48.798;44.756;2022-12-07T01:13:31;103717.75;;;-7.39;52.28
75668;BME280;64266;48.798;44.756;2022-12-07T01:15:59;103725.31;;;-7.31;51.15
75668;BME280;64266;48.798;44.756;2022-12-07T01:18:27;103680.50;;;-7.67;51.49
75668;BME280;64266;48.798;44.756;2022-12-07T01:21:15;103719.59;;;-7.47;51.94
75668;BME280;64266;48.798;44.756;2022-12-07T01:23:42;103717.19;;;-7.54;52.07
75668;BME280;64266;48.798;44.756;2022-12-07T01:26:11;103725.59;;;-7.45;51.95
75668;BME280;64266;48.798;44.756;2022-12-07T01:28:37;103722.91;;;-7.39;52.31
75668;BME280;64266;48.798;44.756;2022-12-07T01:31:22;103726.22;;;-7.34;51.17
75668;BME280;64266;48.798;44.756;2022-12-07T01:33:52;103726.22;;;-7.34;51.60
75668;BME280;64266;48.798;44.756;2022-12-07T01:36:19;103736.59;;;-7.37;51.66
75668;BME280;64266;48.798;44.756;2022-12-07T01:38:48;103731.53;;;-7.41;50.67
75668;BME280;64266;48.798;44.756;2022-12-07T01:41:17;103740.16;;;-7.44;51.46
75668;BME280;64266;48.798;44.756;2022-12-07T01:46:33;103735.97;;;-7.48;50.25
75668;BME280;64266;48.798;44.756;2022-12-07T01:48:59;103735.06;;;-7.47;51.17
75668;BME280;64266;48.798;44.756;2022-12-07T01:51:25;103735.78;;;-7.40;51.78
75668;BME280;64266;48.798;44.756;2022-12-07T01:53:52;103712.81;;;-7.51;52.07
75668;BME280;64266;48.798;44.756;2022-12-07T01:56:23;103730.84;;;-7.51;49.91
75668;BME280;64266;48.798;44.756;2022-12-07T01:58:51;103730.81;;;-7.49;51.92
75668;BME280;64266;48.798;44.756;2022-12-07T02:01:19;103731.66;;;-7.49;50.64
75668;BME280;64266;48.798;44.756;2022-12-07T02:03:45;103736.81;;;-7.49;51.02
75668;BME280;64266;48.798;44.756;2022-12-07T02:06:16;103735.09;;;-7.48;50.87
75668;BME280;64266;48.798;44.756;2022-12-07T02:08:43;103740.16;;;-7.44;50.21
75668;BME280;64266;48.798;44.756;2022-12-07T02:11:09;103726.75;;;-7.61;49.76
75668;BME280;64266;48.798;44.756;2022-12-07T02:13:37;103721.25;;;-7.90;50.44
75668;BME280;64266;48.798;44.756;2022-12-07T02:21:47;103730.41;;;-7.74;51.65
75668;BME280;64266;48.798;44.756;2022-12-07T02:29:37;103723.91;;;-7.96;51.61
75668;BME280;64266;48.798;44.756;2022-12-07T02:32:13;103724.75;;;-7.94;51.04
75668;BME280;64266;48.798;44.756;2022-12-07T02:40:22;103699.25;;;-8.08;51.58
75668;BME280;64266;48.798;44.756;2022-12-07T02:43:04;103728.25;;;-7.97;51.15
75668;BME280;64266;48.798;44.756;2022-12-07T02:45:34;103689.91;;;-8.13;51.20
75668;BME280;64266;48.798;44.756;2022-12-07T02:48:02;103714.44;;;-7.93;51.12
75668;BME280;64266;48.798;44.756;2022-12-07T02:50:30;103735.81;;;-7.89;50.13
75668;BME280;64266;48.798;44.756;2022-12-07T02:52:55;103700.34;;;-8.23;50.71
75668;BME280;64266;48.798;44.756;2022-12-07T02:55:28;103699.50;;;-8.23;51.68
75668;BME280;64266;48.798;44.756;2022-12-07T03:01:09;103720.63;;;-8.04;51.69
75668;BME280;64266;48.798;44.756;2022-12-07T03:03:44;103703.69;;;-8.17;50.82
75668;BME280;64266;48.798;44.756;2022-12-07T03:06:16;103729.22;;;-8.05;50.55
75668;BME280;64266;48.798;44.756;2022-12-07T03:09:08;103731.72;;;-8.01;51.09
75668;BME280;64266;48.798;44.756;2022-12-07T03:11:47;103729.31;;;-8.11;50.93
75668;BME280;64266;48.798;44.756;2022-12-07T03:16:57;103712.16;;;-8.09;52.08
75668;BME280;64266;48.798;44.756;2022-12-07T03:19:25;103719.72;;;-8.00;50.81
75668;BME280;64266;48.798;44.756;2022-12-07T03:22:03;103742.59;;;-7.84;51.77
75668;BME280;64266;48.798;44.756;2022-12-07T03:24:36;103733.97;;;-7.81;51.26
75668;BME280;64266;48.798;44.756;2022-12-07T03:27:16;103706.09;;;-8.08;50.97
75668;BME280;64266;48.798;44.756;2022-12-07T03:30:05;103712.81;;;-7.98;51.35
75668;BME280;64266;48.798;44.756;2022-12-07T03:32:37;103735.78;;;-7.86;50.51
75668;BME280;64266;48.798;44.756;2022-12-07T03:35:15;103740.00;;;-7.84;51.34
75668;BME280;64266;48.798;44.756;2022-12-07T03:37:44;103743.50;;;-7.86;50.93
75668;BME280;64266;48.798;44.756;2022-12-07T03:40:30;103751.09;;;-7.79;50.65
75668;BME280;64266;48.798;44.756;2022-12-07T03:43:00;103746.81;;;-7.80;50.90
75668;BME280;64266;48.798;44.756;2022-12-07T03:45:38;103747.69;;;-7.79;50.88
75668;BME280;64266;48.798;44.756;2022-12-07T03:53:53;103704.13;;;-7.93;50.95
75668;BME280;64266;48.798;44.756;2022-12-07T03:56:20;103736.13;;;-7.58;50.99
75668;BME280;64266;48.798;44.756;2022-12-07T03:58:49;103742.16;;;-7.58;50.49
75668;BME280;64266;48.798;44.756;2022-12-07T04:01:17;103734.38;;;-7.56;51.55
75668;BME280;64266;48.798;44.756;2022-12-07T04:03:43;103721.25;;;-7.43;50.87
75668;BME280;64266;48.798;44.756;2022-12-07T04:06:09;103746.78;;;-7.31;49.68
75668;BME280;64266;48.798;44.756;2022-12-07T04:08:35;103743.63;;;-7.45;49.36
75668;BME280;64266;48.798;44.756;2022-12-07T04:11:01;103748.78;;;-7.45;50.19
75668;BME280;64266;48.798;44.756;2022-12-07T04:13:27;103741.69;;;-7.32;51.18
75668;BME280;64266;48.798;44.756;2022-12-07T04:15:53;103698.16;;;-7.49;51.43
75668;BME280;64266;48.798;44.756;2022-12-07T04:18:19;103722.72;;;-7.30;49.16
75668;BME280;64266;48.798;44.756;2022-12-07T04:20:45;103729.47;;;-7.24;48.88
75668;BME280;64266;48.798;44.756;2022-12-07T04:23:11;103724.16;;;-7.17;48.90
75668;BME280;64266;48.798;44.756;2022-12-07T04:25:37;103742.78;;;-7.02;49.10
75668;BME280;64266;48.798;44.756;2022-12-07T04:28:03;103743.59;;;-7.00;48.34
75668;BME280;64266;48.798;44.756;2022-12-07T04:30:30;103741.06;;;-7.02;49.43
75668;BME280;64266;48.798;44.756;2022-12-07T04:32:56;103746.97;;;-6.97;48.42
75668;BME280;64266;48.798;44.756;2022-12-07T04:35:22;103752.97;;;-6.96;48.52
75668;BME280;64266;48.798;44.756;2022-12-07T04:37:48;103734.38;;;-7.12;48.75
75668;BME280;64266;48.798;44.756;2022-12-07T04:40:14;103730.09;;;-7.13;48.45
75668;BME280;64266;48.798;44.756;2022-12-07T04:42:40;103727.59;;;-7.16;48.09
75668;BME280;64266;48.798;44.756;2022-12-07T04:45:06;103723.47;;;-7.25;48.33
75668;BME280;64266;48.798;44.756;2022-12-07T04:47:32;103760.66;;;-6.95;49.11
75668;BME280;64266;48.798;44.756;2022-12-07T04:49:58;103741.94;;;-7.03;48.29
75668;BME280;64266;48.798;44.756;2022-12-07T04:52:24;103729.22;;;-7.10;48.81
75668;BME280;64266;48.798;44.756;2022-12-07T04:54:50;103769.91;;;-6.83;48.16
75668;BME280;64266;48.798;44.756;2022-12-07T04:57:16;103772.50;;;-6.85;47.91
75668;BME280;64266;48.798;44.756;2022-12-07T04:59:41;103762.31;;;-6.89;48.41
75668;BME280;64266;48.798;44.756;2022-12-07T05:02:07;103774.69;;;-6.65;49.51
75668;BME280;64266;48.798;44.756;2022-12-07T05:04:33;103783.34;;;-6.68;47.24
75668;BME280;64266;48.798;44.756;2022-12-07T05:06:59;103761.44;;;-6.90;47.73
75668;BME280;64266;48.798;44.756;2022-12-07T05:09:25;103764.84;;;-6.88;47.17
75668;BME280;64266;48.798;44.756;2022-12-07T05:11:51;103783.94;;;-6.96;47.37
75668;BME280;64266;48.798;44.756;2022-12-07T05:14:20;103781.78;;;-7.18;48.18
75668;BME280;64266;48.798;44.756;2022-12-07T05:16:49;103780.28;;;-7.29;47.83
75668;BME280;64266;48.798;44.756;2022-12-07T05:19:16;103782.06;;;-7.34;48.56
75668;BME280;64266;48.798;44.756;2022-12-07T05:21:42;103778.63;;;-7.33;48.83
75668;BME280;64266;48.798;44.756;2022-12-07T05:24:11;103765.97;;;-7.45;48.11
75668;BME280;64266;48.798;44.756;2022-12-07T05:26:39;103771.28;;;-7.56;47.74
75668;BME280;64266;48.798;44.756;2022-12-07T05:29:05;103796.88;;;-7.45;47.96
75668;BME280;64266;48.798;44.756;2022-12-07T05:31:31;103792.47;;;-7.39;48.95
75668;BME280;64266;48.798;44.756;2022-12-07T05:33:59;103788.84;;;-7.29;48.18
75668;BME280;64266;48.798;44.756;2022-12-07T05:36:25;103797.06;;;-7.10;48.46
75668;BME280;64266;48.798;44.756;2022-12-07T05:38:54;103794.59;;;-7.15;47.98
75668;BME280;64266;48.798;44.756;2022-12-07T05:41:20;103801.22;;;-7.01;47.02
75668;BME280;64266;48.798;44.756;2022-12-07T05:44:05;103798.53;;;-6.97;47.80
75668;BME280;64266;48.798;44.756;2022-12-07T05:46:31;103805.13;;;-6.82;47.88
75668;BME280;64266;48.798;44.756;2022-12-07T05:48:57;103797.97;;;-6.68;46.89
75668;BME280;64266;48.798;44.756;2022-12-07T05:51:24;103792.09;;;-6.36;47.46
75668;BME280;64266;48.798;44.756;2022-12-07T05:53:50;103784.16;;;-6.27;45.96
75668;BME280;64266;48.798;44.756;2022-12-07T05:56:16;103785.56;;;-6.13;45.83
75668;BME280;64266;48.798;44.756;2022-12-07T05:58:42;103782.06;;;-6.12;45.25
75668;BME280;64266;48.798;44.756;2022-12-07T06:01:27;103739.09;;;-6.14;44.62
75668;BME280;64266;48.798;44.756;2022-12-07T06:03:52;103768.31;;;-5.78;45.58
75668;BME280;64266;48.798;44.756;2022-12-07T06:06:20;103779.63;;;-5.50;43.95
75668;BME280;64266;48.798;44.756;2022-12-07T06:08:47;103768.66;;;-5.58;44.41
75668;BME280;64266;48.798;44.756;2022-12-07T06:11:13;103785.75;;;-5.53;45.20
75668;BME280;64266;48.798;44.756;2022-12-07T06:13:59;103774.06;;;-5.67;44.88
75668;BME280;64266;48.798;44.756;2022-12-07T06:16:24;103790.88;;;-5.51;44.95
75668;BME280;64266;48.798;44.756;2022-12-07T06:18:51;103788.09;;;-5.43;45.22
75668;BME280;64266;48.798;44.756;2022-12-07T06:21:16;103779.69;;;-5.52;44.82
75668;BME280;64266;48.798;44.756;2022-12-07T06:23:42;103795.91;;;-5.47;45.03
75668;BME280;64266;48.798;44.756;2022-12-07T06:26:08;103798.78;;;-5.57;44.68
75668;BME280;64266;48.798;44.756;2022-12-07T06:28:34;103799.19;;;-5.72;44.62
75668;BME280;64266;48.798;44.756;2022-12-07T06:31:01;103762.03;;;-6.02;45.86
75668;BME280;64266;48.798;44.756;2022-12-07T06:33:28;103768.28;;;-5.77;44.93
75668;BME280;64266;48.798;44.756;2022-12-07T06:35:54;103807.22;;;-5.51;45.18
75668;BME280;64266;48.798;44.756;2022-12-07T06:38:21;103792.63;;;-5.53;44.72
75668;BME280;64266;48.798;44.756;2022-12-07T06:40:47;103819.25;;;-5.48;43.94
75668;BME280;64266;48.798;44.756;2022-12-07T06:43:13;103816.06;;;-5.59;44.56
75668;BME280;64266;48.798;44.756;2022-12-07T06:45:41;103790.75;;;-5.80;45.26
75668;BME280;64266;48.798;44.756;2022-12-07T06:48:07;103807.53;;;-5.63;46.07
75668;BME280;64266;48.798;44.756;2022-12-07T06:50:34;103801.84;;;-5.41;45.21
75668;BME280;64266;48.798;44.756;2022-12-07T06:52:59;103784.53;;;-5.39;45.97
75668;BME280;64266;48.798;44.756;2022-12-07T06:55:25;103802.41;;;-5.32;45.41
75668;BME280;64266;48.798;44.756;2022-12-07T06:57:52;103772.53;;;-5.42;44.53
75668;BME280;64266;48.798;44.756;2022-12-07T07:00:17;103794.88;;;-5.39;44.93
75668;BME280;64266;48.798;44.756;2022-12-07T07:02:44;103797.25;;;-5.32;46.15
75668;BME280;64266;48.798;44.756;2022-12-07T07:05:10;103786.50;;;-5.47;44.37
75668;BME280;64266;48.798;44.756;2022-12-07T07:07:35;103794.25;;;-5.49;45.81
75668;BME280;64266;48.798;44.756;2022-12-07T07:10:01;103770.13;;;-5.48;46.74
75668;BME280;64266;48.798;44.756;2022-12-07T07:12:28;103799.97;;;-5.36;46.48
75668;BME280;64266;48.798;44.756;2022-12-07T07:14:54;103792.41;;;-5.44;45.77
75668;BME280;64266;48.798;44.756;2022-12-07T07:17:20;103737.81;;;-5.64;45.95
75668;BME280;64266;48.798;44.756;2022-12-07T07:19:46;103700.81;;;-5.66;46.94
75668;BME280;64266;48.798;44.756;2022-12-07T07:22:15;103686.72;;;-5.85;46.76
75668;BME280;64266;48.798;44.756;2022-12-07T07:24:41;103690.06;;;-5.83;47.62
75668;BME280;64266;48.798;44.756;2022-12-07T07:27:07;103777.28;;;-5.59;47.86
75668;BME280;64266;48.798;44.756;2022-12-07T07:29:33;103731.03;;;-6.02;47.14
75668;BME280;64266;48.798;44.756;2022-12-07T07:31:59;103709.53;;;-6.03;48.46
75668;BME280;64266;48.798;44.756;2022-12-07T07:34:28;103644.38;;;-6.46;46.37
75668;BME280;64266;48.798;44.756;2022-12-07T07:36:57;103700.09;;;-6.03;48.41
75668;BME280;64266;48.798;44.756;2022-12-07T07:39:28;103611.69;;;-6.48;47.49
75668;BME280;64266;48.798;44.756;2022-12-07T07:41:54;103700.84;;;-5.68;47.75
75668;BME280;64266;48.798;44.756;2022-12-07T07:44:25;103609.28;;;-6.21;46.40
75668;BME280;64266;48.798;44.756;2022-12-07T07:46:51;103661.63;;;-5.83;46.93
75668;BME280;64266;48.798;44.756;2022-12-07T07:49:17;103701.97;;;-5.78;46.84
75668;BME280;64266;48.798;44.756;2022-12-07T07:51:43;103728.47;;;-5.70;47.38
75668;BME280;64266;48.798;44.756;2022-12-07T07:54:08;103707.19;;;-5.79;47.96
75668;BME280;64266;48.798;44.756;2022-12-07T07:56:35;103675.84;;;-5.98;47.78
75668;BME280;64266;48.798;44.756;2022-12-07T07:59:02;103718.16;;;-5.71;47.80
75668;BME280;64266;48.798;44.756;2022-12-07T08:01:28;103728.59;;;-5.42;48.03
75668;BME280;64266;48.798;44.756;2022-12-07T08:03:53;103705.50;;;-5.48;47.81
75668;BME280;64266;48.798;44.756;2022-12-07T08:06:20;103675.72;;;-5.63;47.48
75668;BME280;64266;48.798;44.756;2022-12-07T08:08:46;103615.38;;;-5.91;47.87
75668;BME280;64266;48.798;44.756;2022-12-07T08:11:12;103596.41;;;-5.90;47.72
75668;BME280;64266;48.798;44.756;2022-12-07T08:13:38;103671.06;;;-5.50;46.65
75668;BME280;64266;48.798;44.756;2022-12-07T08:16:06;103716.25;;;-5.02;47.62
75668;BME280;64266;48.798;44.756;2022-12-07T08:18:38;103667.47;;;-5.14;46.39
75668;BME280;64266;48.798;44.756;2022-12-07T08:21:06;103698.69;;;-4.92;46.79
75668;BME280;64266;48.798;44.756;2022-12-07T08:23:32;103688.88;;;-4.81;46.76
75668;BME280;64266;48.798;44.756;2022-12-07T08:26:03;103702.31;;;-4.68;46.90
75668;BME280;64266;48.798;44.756;2022-12-07T08:28:30;103690.72;;;-4.57;46.20
75668;BME280;64266;48.798;44.756;2022-12-07T08:31:04;103689.25;;;-4.38;45.87
75668;BME280;64266;48.798;44.756;2022-12-07T08:33:30;103691.44;;;-4.25;44.58
75668;BME280;64266;48.798;44.756;2022-12-07T08:36:10;103685.41;;;-4.26;45.66
75668;BME280;64266;48.798;44.756;2022-12-07T08:38:38;103679.28;;;-4.23;45.38
75668;BME280;64266;48.798;44.756;2022-12-07T08:41:05;103683.69;;;-4.27;45.69
75668;BME280;64266;48.798;44.756;2022-12-07T08:43:33;103645.06;;;-4.33;46.34
75668;BME280;64266;48.798;44.756;2022-12-07T08:46:06;103670.75;;;-4.01;45.10
75668;BME280;64266;48.798;44.756;2022-12-07T08:48:36;103624.84;;;-4.22;44.49
75668;BME280;64266;48.798;44.756;2022-12-07T08:51:03;103621.75;;;-4.08;45.39
75668;BME280;64266;48.798;44.756;2022-12-07T08:53:29;103649.00;;;-3.97;44.45
75668;BME280;64266;48.798;44.756;2022-12-07T08:55:56;103664.63;;;-3.98;44.44
75668;BME280;64266;48.798;44.756;2022-12-07T08:58:24;103613.84;;;-4.28;45.57
75668;BME280;64266;48.798;44.756;2022-12-07T09:00:49;103657.59;;;-3.95;43.84
75668;BME280;64266;48.798;44.756;2022-12-07T09:03:16;103653.38;;;-3.99;44.16
75668;BME280;64266;48.798;44.756;2022-12-07T09:05:42;103611.06;;;-4.24;44.72
75668;BME280;64266;48.798;44.756;2022-12-07T09:08:08;103649.59;;;-3.89;44.97
75668;BME280;64266;48.798;44.756;2022-12-07T09:10:34;103639.22;;;-3.89;44.81
75668;BME280;64266;48.798;44.756;2022-12-07T09:13:00;103646.78;;;-3.83;44.78
75668;BME280;64266;48.798;44.756;2022-12-07T09:15:29;103640.44;;;-3.99;44.23
75668;BME280;64266;48.798;44.756;2022-12-07T09:17:59;103623.91;;;-3.95;44.49
75668;BME280;64266;48.798;44.756;2022-12-07T09:20:25;103580.81;;;-4.22;44.80
75668;BME280;64266;48.798;44.756;2022-12-07T09:22:52;103643.59;;;-3.91;44.48
75668;BME280;64266;48.798;44.756;2022-12-07T09:25:19;103626.28;;;-4.13;44.93
75668;BME280;64266;48.798;44.756;2022-12-07T09:27:44;103633.09;;;-4.11;45.32
75668;BME280;64266;48.798;44.756;2022-12-07T09:30:10;103628.66;;;-4.07;45.71
75668;BME280;64266;48.798;44.756;2022-12-07T09:32:36;103632.78;;;-4.02;45.81
75668;BME280;64266;48.798;44.756;2022-12-07T09:35:02;103635.22;;;-3.97;45.33
75668;BME280;64266;48.798;44.756;2022-12-07T09:37:29;103527.38;;;-4.49;45.46
75668;BME280;64266;48.798;44.756;2022-12-07T09:39:57;103621.34;;;-3.96;45.93
75668;BME280;64266;48.798;44.756;2022-12-07T09:42:39;103617.19;;;-4.00;44.98
75668;BME280;64266;48.798;44.756;2022-12-07T09:45:15;103624.78;;;-3.96;45.31
75668;BME280;64266;48.798;44.756;2022-12-07T09:47:44;103631.78;;;-3.98;45.69
75668;BME280;64266;48.798;44.756;2022-12-07T09:50:20;103617.78;;;-3.94;46.29
75668;BME280;64266;48.798;44.756;2022-12-07T09:52:48;103557.50;;;-4.22;46.15
75668;BME280;64266;48.798;44.756;2022-12-07T09:55:28;103614.59;;;-4.00;45.07
75668;BME280;64266;48.798;44.756;2022-12-07T09:57:55;103587.22;;;-4.09;46.33
75668;BME280;64266;48.798;44.756;2022-12-07T10:00:23;103589.72;;;-4.06;45.76
75668;BME280;64266;48.798;44.756;2022-12-07T10:03:00;103585.28;;;-4.02;44.97
75668;BME280;64266;48.798;44.756;2022-12-07T10:05:30;103598.38;;;-3.82;45.35
75668;BME280;64266;48.798;44.756;2022-12-07T10:07:59;103582.44;;;-3.71;44.27
75668;BME280;64266;48.798;44.756;2022-12-07T10:10:29;103574.81;;;-3.99;45.43
75668;BME280;64266;48.798;44.756;2022-12-07T10:12:59;103597.16;;;-3.97;45.30
75668;BME280;64266;48.798;44.756;2022-12-07T10:15:44;103599.75;;;-3.97;44.69
75668;BME280;64266;48.798;44.756;2022-12-07T10:23:39;103597.31;;;-3.76;45.22
75668;BME280;64266;48.798;44.756;2022-12-07T10:29:30;103476.28;;;-4.46;44.70
75668;BME280;64266;48.798;44.756;2022-12-07T10:34:39;103423.28;;;-4.83;44.68
75668;BME280;64266;48.798;44.756;2022-12-07T10:39:57;103587.44;;;-3.90;45.32
75668;BME280;64266;48.798;44.756;2022-12-07T10:42:27;103575.00;;;-3.80;44.48
75668;BME280;64266;48.798;44.756;2022-12-07T10:45:14;103562.63;;;-3.72;45.83
75668;BME280;64266;48.798;44.756;2022-12-07T10:48:11;103541.25;;;-3.79;44.99
75668;BME280;64266;48.798;44.756;2022-12-07T10:50:47;103565.81;;;-3.66;44.69
75668;BME280;64266;48.798;44.756;2022-12-07T10:53:24;103565.44;;;-3.78;45.12
75668;BME280;64266;48.798;44.756;2022-12-07T11:02:38;103551.66;;;-3.80;45.90
75668;BME280;64266;48.798;44.756;2022-12-07T11:04:43;103563.00;;;-3.83;44.44
75668;BME280;64266;48.798;44.756;2022-12-07T11:07:27;103560.03;;;-3.72;45.27
75668;BME280;64266;48.798;44.756;2022-12-07T11:13:11;103546.25;;;-3.98;45.15
75668;BME280;64266;48.798;44.756;2022-12-07T11:18:15;103544.34;;;-4.17;45.43
75668;BME280;64266;48.798;44.756;2022-12-07T11:23:44;103540.88;;;-4.16;45.99
75668;BME280;64266;48.798;44.756;2022-12-07T11:32:39;103525.25;;;-4.38;46.09
75668;BME280;64266;48.798;44.756;2022-12-07T11:37:58;103544.56;;;-4.48;46.77
75668;BME280;64266;48.798;44.756;2022-12-07T11:40:34;103542.38;;;-4.34;47.56
75668;BME280;64266;48.798;44.756;2022-12-07T11:43:04;103544.53;;;-4.22;47.69
75668;BME280;64266;48.798;44.756;2022-12-07T11:45:33;103518.53;;;-4.44;46.09
75668;BME280;64266;48.798;44.756;2022-12-07T11:50:57;103547.81;;;-3.94;46.11
75668;BME280;64266;48.798;44.756;2022-12-07T11:53:29;103541.59;;;-3.88;45.61
75668;BME280;64266;48.798;44.756;2022-12-07T11:56:19;103550.69;;;-4.01;46.52
75668;BME280;64266;48.798;44.756;2022-12-07T12:06:40;103536.13;;;-4.04;45.43
75668;BME280;64266;48.798;44.756;2022-12-07T12:09:09;103541.81;;;-3.94;45.14
75668;BME280;64266;48.798;44.756;2022-12-07T12:14:32;103537.06;;;-4.06;44.78
75668;BME280;64266;48.798;44.756;2022-12-07T12:17:39;103534.00;;;-4.17;45.13
75668;BME280;64266;48.798;44.756;2022-12-07T12:20:26;103539.72;;;-4.32;47.03
75668;BME280;64266;48.798;44.756;2022-12-07T12:23:05;103507.09;;;-4.63;46.81
75668;BME280;64266;48.798;44.756;2022-12-07T12:25:40;103547.66;;;-4.37;45.94
75668;BME280;64266;48.798;44.756;2022-12-07T12:28:22;103541.13;;;-4.24;45.14
75668;BME280;64266;48.798;44.756;2022-12-07T12:33:33;103521.38;;;-4.51;45.54
75668;BME280;64266;48.798;44.756;2022-12-07T12:46:53;103541.47;;;-4.33;45.89
75668;BME280;64266;48.798;44.756;2022-12-07T12:51:57;103538.13;;;-4.37;46.48
75668;BME280;64266;48.798;44.756;2022-12-07T12:54:32;103549.22;;;-4.33;45.80
75668;BME280;64266;48.798;44.756;2022-12-07T12:59:32;103532.94;;;-4.61;45.44
75668;BME280;64266;48.798;44.756;2022-12-07T13:18:35;103540.59;;;-4.33;46.43
75668;BME280;64266;48.798;44.756;2022-12-07T13:31:41;103560.00;;;-4.45;46.54
75668;BME280;64266;48.798;44.756;2022-12-07T13:36:56;103559.28;;;-4.75;46.45
75668;BME280;64266;48.798;44.756;2022-12-07T13:39:27;103570.88;;;-4.86;46.51
75668;BME280;64266;48.798;44.756;2022-12-07T13:41:58;103540.72;;;-5.14;46.58
75668;BME280;64266;48.798;44.756;2022-12-07T13:44:26;103559.03;;;-5.21;46.50
75668;BME280;64266;48.798;44.756;2022-12-07T13:49:46;103552.16;;;-5.50;47.42
75668;BME280;64266;48.798;44.756;2022-12-07T13:57:31;103537.28;;;-5.71;47.69
75668;BME280;64266;48.798;44.756;2022-12-07T14:00:04;103567.94;;;-5.59;48.39
75668;BME280;64266;48.798;44.756;2022-12-07T14:02:34;103557.56;;;-5.58;47.88
75668;BME280;64266;48.798;44.756;2022-12-07T14:05:15;103507.81;;;-5.93;47.85
75668;BME280;64266;48.798;44.756;2022-12-07T14:10:34;103568.38;;;-5.74;48.39
75668;BME280;64266;48.798;44.756;2022-12-07T14:13:01;103568.59;;;-5.82;47.56
75668;BME280;64266;48.798;44.756;2022-12-07T14:15:33;103514.06;;;-6.31;48.09
75668;BME280;64266;48.798;44.756;2022-12-07T14:18:02;103574.94;;;-5.92;48.54
75668;BME280;64266;48.798;44.756;2022-12-07T14:23:01;103548.13;;;-6.19;48.69
75668;BME280;64266;48.798;44.756;2022-12-07T14:25:46;103573.78;;;-6.13;49.28
75668;BME280;64266;48.798;44.756;2022-12-07T14:28:31;103546.50;;;-6.23;49.81
75668;BME280;64266;48.798;44.756;2022-12-07T14:30:58;103561.44;;;-6.34;49.47
75668;BME280;64266;48.798;44.756;2022-12-07T14:33:24;103521.16;;;-6.73;49.70
75668;BME280;64266;48.798;44.756;2022-12-07T14:35:51;103528.59;;;-6.61;49.63
75668;BME280;64266;48.798;44.756;2022-12-07T14:38:21;103576.81;;;-6.29;49.75
75668;BME280;64266;48.798;44.756;2022-12-07T14:40:48;103574.94;;;-6.24;49.61
75668;BME280;64266;48.798;44.756;2022-12-07T14:43:16;103571.69;;;-6.31;49.08
75668;BME280;64266;48.798;44.756;2022-12-07T14:45:42;103568.97;;;-6.58;49.66
75668;BME280;64266;48.798;44.756;2022-12-07T14:48:13;103543.31;;;-6.65;51.32
75668;BME280;64266;48.798;44.756;2022-12-07T14:50:51;103539.19;;;-6.72;50.65
75668;BME280;64266;48.798;44.756;2022-12-07T14:53:22;103577.69;;;-6.64;50.83
75668;BME280;64266;48.798;44.756;2022-12-07T14:55:49;103571.34;;;-6.51;49.88
75668;BME280;64266;48.798;44.756;2022-12-07T14:58:16;103561.41;;;-6.66;49.93
75668;BME280;64266;48.798;44.756;2022-12-07T15:00:43;103574.16;;;-6.60;49.98
75668;BME280;64266;48.798;44.756;2022-12-07T15:03:10;103573.34;;;-6.62;50.20
75668;BME280;64266;48.798;44.756;2022-12-07T15:05:36;103584.38;;;-6.55;50.80
75668;BME280;64266;48.798;44.756;2022-12-07T15:08:03;103523.25;;;-6.89;49.74
75668;BME280;64266;48.798;44.756;2022-12-07T15:10:32;103586.97;;;-6.57;50.27
75668;BME280;64266;48.798;44.756;2022-12-07T15:13:02;103573.34;;;-6.62;50.15
75668;BME280;64266;48.798;44.756;2022-12-07T15:15:49;103593.28;;;-6.69;50.14
75668;BME280;64266;48.798;44.756;2022-12-07T15:18:16;103553.41;;;-6.89;49.83